Time;durP1;ratioP1;P1;durP2;ratioP2;P2;SDS_P1;SDS_P2;PMS_P1;PMS_P2;Temp;Humidity;BMP_temperature;BMP_pressure;BME280_temperature;BME280_humidity;BME280_pressure;Samples;Min_cycle;Max_cycle;Signal;HPM_P1;HPM_P2
2022/01/02 00:01:03;;;;;;;;;;;;;;;13.59;100.00;98345.75;5075635;28;20019;-79
2022/01/02 00:03:54;;;;;;;;;;;;;;;14.02;100.00;98340.00;5074661;28;19925;-79
2022/01/02 00:06:48;;;;;;;;;;;;;;;14.09;100.00;98340.50;5074421;28;19931;-79
2022/01/02 00:09:35;;;;;;;;;;;;;;;14.15;100.00;98337.84;5074285;28;19924;-79
2022/01/02 00:12:50;;;;;;;;;;;;;;;14.07;100.00;98331.75;5075499;28;19928;-79
2022/01/02 00:15:37;;;;;;;;;;;;;;;14.11;100.00;98331.59;5075387;28;19925;-79
2022/01/02 00:18:26;;;;;;;;;;;;;;;13.90;100.00;98322.03;5074385;28;20333;-79
2022/01/02 00:21:11;;;;;;;;;;;;;;;14.17;100.00;98324.13;5075401;28;19932;-79
2022/01/02 00:24:03;;;;;;;;;;;;;;;14.02;100.00;98317.53;5060127;28;19932;-79
2022/01/02 00:26:50;;;;;;;;;;;;;;;14.03;100.00;98316.28;5074298;28;19924;-79
2022/01/02 00:29:40;;;;;;;;;;;;;;;14.08;100.00;98310.84;5074444;28;19931;-79
2022/01/02 00:32:26;;;;;;;;;;;;;;;14.07;100.00;98308.50;5074097;28;20057;-79
2022/01/02 00:35:11;;;;;;;;;;;;;;;13.80;100.00;98308.41;5073707;28;20074;-79
2022/01/02 00:37:57;;;;;;;;;;;;;;;13.69;100.00;98310.88;5074031;28;20364;-79
2022/01/02 00:40:45;;;;;;;;;;;;;;;13.39;100.00;98308.88;5073887;28;20397;-79
2022/01/02 00:43:52;;;;;;;;;;;;;;;13.67;100.00;98300.13;5074800;28;20069;-79
2022/01/02 00:46:44;;;;;;;;;;;;;;;13.38;100.00;98312.91;5073823;28;19924;-79
2022/01/02 00:49:30;;;;;;;;;;;;;;;13.78;100.00;98296.88;5045317;28;19925;-79
2022/01/02 00:52:19;;;;;;;;;;;;;;;13.87;100.00;98288.50;5059994;28;19951;-79
2022/01/02 00:55:07;;;;;;;;;;;;;;;13.69;100.00;98282.81;5073688;28;19925;-79
2022/01/02 00:57:57;;;;;;;;;;;;;;;13.83;100.00;98271.00;5074677;28;19973;-79
2022/01/02 01:00:49;;;;;;;;;;;;;;;13.52;100.00;98276.69;5053381;28;19924;-79
2022/01/02 01:03:39;;;;;;;;;;;;;;;13.70;100.00;98256.31;5053256;28;20469;-79
2022/01/02 01:06:33;;;;;;;;;;;;;;;13.69;100.00;98260.38;5053595;28;19925;-79
2022/01/02 01:09:20;;;;;;;;;;;;;;;13.98;100.00;98261.50;5053442;28;19926;-79
2022/01/02 01:12:06;;;;;;;;;;;;;;;14.01;100.00;98259.81;5052902;28;19932;-79
2022/01/02 01:14:51;;;;;;;;;;;;;;;14.01;100.00;98257.78;5053214;28;19925;-78
2022/01/02 01:17:38;;;;;;;;;;;;;;;13.46;100.00;98247.66;5053359;28;19925;-79
2022/01/02 01:20:26;;;;;;;;;;;;;;;13.76;100.00;98243.22;5038872;28;19932;-79
2022/01/02 01:23:16;;;;;;;;;;;;;;;13.89;100.00;98241.03;5039135;28;20081;-79
2022/01/02 01:26:06;;;;;;;;;;;;;;;13.79;100.00;98254.31;5053131;28;19929;-79
2022/01/02 01:28:52;;;;;;;;;;;;;;;13.71;100.00;98246.63;5046917;28;19929;-79
2022/01/02 01:31:37;;;;;;;;;;;;;;;13.74;100.00;98245.69;5072120;28;19932;-78
2022/01/02 01:34:26;;;;;;;;;;;;;;;13.57;100.00;98236.00;5072912;28;19928;-78
2022/01/02 01:37:11;;;;;;;;;;;;;;;13.42;100.00;98223.78;5071521;28;20315;-79
2022/01/02 01:39:59;;;;;;;;;;;;;;;13.30;100.00;98217.03;5092228;28;20001;-79
2022/01/02 01:42:56;;;;;;;;;;;;;;;13.55;100.00;98219.63;5072751;28;19983;-78
2022/01/02 01:45:42;;;;;;;;;;;;;;;13.36;100.00;98209.56;5072896;28;19928;-78
2022/01/02 01:48:30;;;;;;;;;;;;;;;13.46;100.00;98213.19;5072684;28;20275;-79
2022/01/02 01:51:15;;;;;;;;;;;;;;;13.21;100.00;98219.03;5072843;28;20336;-79
2022/01/02 01:54:01;;;;;;;;;;;;;;;13.57;100.00;98213.56;5072700;28;20276;-79
2022/01/02 01:56:52;;;;;;;;;;;;;;;13.51;100.00;98210.56;5092098;28;19932;-79
2022/01/02 01:59:40;;;;;;;;;;;;;;;13.61;100.00;98208.56;5091918;28;20279;-79
2022/01/02 02:02:27;;;;;;;;;;;;;;;13.53;100.00;98207.28;5072368;28;19931;-79
2022/01/02 02:05:14;;;;;;;;;;;;;;;13.63;100.00;98206.84;5058681;28;19925;-79
2022/01/02 02:08:03;;;;;;;;;;;;;;;13.33;100.00;98193.66;5072779;28;20364;-79
2022/01/02 02:10:56;;;;;;;;;;;;;;;13.75;100.00;98188.31;5072621;28;19925;-79
2022/01/02 02:13:44;;;;;;;;;;;;;;;13.90;100.00;98192.84;5077858;28;19947;-79
2022/01/02 02:16:30;;;;;;;;;;;;;;;13.86;100.00;98186.59;5101145;28;20402;-78
2022/01/02 02:19:21;;;;;;;;;;;;;;;13.58;100.00;98170.97;5072554;28;20395;-79
2022/01/02 02:22:07;;;;;;;;;;;;;;;13.51;100.00;98170.50;5058900;28;19966;-79
2022/01/02 02:24:53;;;;;;;;;;;;;;;13.77;100.00;98172.56;5076655;28;19950;-79
2022/01/02 02:27:38;;;;;;;;;;;;;;;13.86;100.00;98175.38;5076554;28;20525;-79
2022/01/02 02:30:26;;;;;;;;;;;;;;;13.74;100.00;98179.13;5076491;28;20034;-79
2022/01/02 02:33:14;;;;;;;;;;;;;;;13.85;100.00;98181.47;5062425;28;19935;-79
2022/01/02 02:36:01;;;;;;;;;;;;;;;13.52;100.00;98172.84;5048202;28;20035;-78
2022/01/02 02:38:47;;;;;;;;;;;;;;;13.28;100.00;98176.66;5077476;28;19931;-78
2022/01/02 02:41:35;;;;;;;;;;;;;;;13.36;100.00;98166.72;5062288;28;20403;-78
2022/01/02 02:44:35;;;;;;;;;;;;;;;13.49;100.00;98156.16;5075885;28;19924;-78
2022/01/02 02:50:27;;;;;;;;;;;;;;;13.40;100.00;98153.31;5076227;28;19928;-79
2022/01/02 02:53:14;;;;;;;;;;;;;;;13.42;100.00;98146.00;5061649;28;20532;-78
2022/01/02 02:56:00;;;;;;;;;;;;;;;13.44;100.00;98142.72;5055298;28;20284;-79
2022/01/02 02:58:46;;;;;;;;;;;;;;;13.44;100.00;98140.69;5076524;28;19947;-79
2022/01/02 03:01:32;;;;;;;;;;;;;;;13.21;100.00;98132.84;5075845;28;19928;-79
2022/01/02 03:04:19;;;;;;;;;;;;;;;13.40;100.00;98131.66;5075857;28;19932;-78
2022/01/02 03:07:05;;;;;;;;;;;;;;;13.27;100.00;98116.97;5075831;28;19924;-78
2022/01/02 03:09:52;;;;;;;;;;;;;;;13.38;100.00;98116.53;5061804;28;19931;-78
2022/01/02 03:12:40;;;;;;;;;;;;;;;13.35;100.00;98111.84;5062416;28;19925;-79
2022/01/02 03:15:29;;;;;;;;;;;;;;;13.45;100.00;98099.41;5061878;28;19928;-79
2022/01/02 03:18:16;;;;;;;;;;;;;;;13.27;100.00;98088.91;5075722;28;19924;-79
2022/01/02 03:21:02;;;;;;;;;;;;;;;13.33;100.00;98097.53;5075588;28;20019;-79
2022/01/02 03:23:48;;;;;;;;;;;;;;;13.18;100.00;98090.91;5060886;28;19948;-79
2022/01/02 03:26:34;;;;;;;;;;;;;;;13.39;100.00;98082.38;5075645;28;20065;-79
2022/01/02 03:29:20;;;;;;;;;;;;;;;13.24;100.00;98075.81;5075416;28;19932;-78
2022/01/02 03:32:06;;;;;;;;;;;;;;;12.90;100.00;98076.03;5074862;28;20051;-78
2022/01/02 03:34:53;;;;;;;;;;;;;;;12.95;100.00;98067.00;5074175;28;19925;-78
2022/01/02 03:37:39;;;;;;;;;;;;;;;12.84;100.00;98060.28;5075156;28;19955;-79
2022/01/02 03:40:25;;;;;;;;;;;;;;;13.16;100.00;98059.75;5075886;28;19947;-79
2022/01/02 03:43:10;;;;;;;;;;;;;;;13.10;100.00;98050.41;5060204;28;19931;-79
2022/01/02 03:46:02;;;;;;;;;;;;;;;12.72;100.00;98037.50;5061672;28;19931;-79
2022/01/02 03:48:51;;;;;;;;;;;;;;;13.16;100.00;98046.50;5061773;28;20290;-78
2022/01/02 03:51:37;;;;;;;;;;;;;;;12.84;100.00;98038.63;5075289;28;19925;-79
2022/01/02 03:54:23;;;;;;;;;;;;;;;12.85;100.00;98030.97;5074808;28;20344;-79
2022/01/02 03:57:11;;;;;;;;;;;;;;;12.92;100.00;98022.31;5061214;28;19932;-79
2022/01/02 03:59:57;;;;;;;;;;;;;;;12.65;100.00;98026.56;5074943;28;19924;-79
2022/01/02 04:02:43;;;;;;;;;;;;;;;12.83;100.00;98019.47;5103459;28;20050;-78
2022/01/02 04:05:30;;;;;;;;;;;;;;;12.76;100.00;98017.75;5061226;28;20302;-79
2022/01/02 04:08:16;;;;;;;;;;;;;;;12.74;100.00;98007.00;5074766;28;20314;-78
2022/01/02 04:11:02;;;;;;;;;;;;;;;13.14;100.00;98011.75;5074879;28;19983;-79
2022/01/02 04:13:50;;;;;;;;;;;;;;;13.26;100.00;98008.81;5089240;28;19948;-79
2022/01/02 04:16:37;;;;;;;;;;;;;;;13.03;100.00;98005.81;5074786;28;19975;-79
2022/01/02 04:19:24;;;;;;;;;;;;;;;12.87;100.00;98003.28;5102907;28;19929;-79
2022/01/02 04:22:09;;;;;;;;;;;;;;;12.90;100.00;97996.75;5075484;28;19932;-79
2022/01/02 04:25:01;;;;;;;;;;;;;;;13.02;100.00;97987.44;5061599;28;20003;-79
2022/01/02 04:27:48;;;;;;;;;;;;;;;12.97;100.00;97985.22;5059946;28;19924;-79
2022/01/02 04:30:34;;;;;;;;;;;;;;;12.80;100.00;97981.16;5074407;28;19960;-78
2022/01/02 04:33:44;;;;;;;;;;;;;;;12.62;100.00;97977.06;5064344;28;19974;-79
2022/01/02 04:36:30;;;;;;;;;;;;;;;12.67;100.00;97972.88;5074185;28;19956;-79
2022/01/02 04:39:16;;;;;;;;;;;;;;;12.75;100.00;97974.91;5088421;28;19924;-79
2022/01/02 04:42:03;;;;;;;;;;;;;;;12.75;100.00;97971.34;5073937;28;19931;-79
2022/01/02 04:44:48;;;;;;;;;;;;;;;12.58;100.00;97961.66;5073530;28;19981;-78
2022/01/02 04:47:34;;;;;;;;;;;;;;;12.59;100.00;97972.38;5074059;28;20279;-79
2022/01/02 04:50:19;;;;;;;;;;;;;;;12.87;100.00;97969.63;5073927;28;19924;-79
2022/01/02 04:53:05;;;;;;;;;;;;;;;12.70;100.00;97967.13;5073808;28;19925;-81
2022/01/02 04:55:50;;;;;;;;;;;;;;;12.63;100.00;97961.81;5073527;28;20375;-81
2022/01/02 04:58:36;;;;;;;;;;;;;;;12.60;100.00;97957.13;5073608;28;19931;-81
2022/01/02 05:01:22;;;;;;;;;;;;;;;12.22;100.00;97965.09;5059685;28;20326;-81
2022/01/02 05:04:09;;;;;;;;;;;;;;;12.21;100.00;97952.34;5087553;28;20070;-81
2022/01/02 05:06:56;;;;;;;;;;;;;;;12.46;100.00;97952.09;5073373;28;19932;-80
2022/01/02 05:09:41;;;;;;;;;;;;;;;12.28;100.00;97951.28;5102021;28;19925;-81
2022/01/02 05:12:29;;;;;;;;;;;;;;;12.14;100.00;97951.84;5073361;28;19925;-79
2022/01/02 05:15:15;;;;;;;;;;;;;;;11.90;100.00;97948.78;5059330;28;19929;-78
2022/01/02 05:18:01;;;;;;;;;;;;;;;12.11;100.00;97936.75;5059041;28;19924;-79
2022/01/02 05:20:47;;;;;;;;;;;;;;;12.18;100.00;97942.06;5092071;28;19928;-79
2022/01/02 05:23:32;;;;;;;;;;;;;;;11.90;100.00;97948.00;5073088;28;20397;-78
2022/01/02 05:26:18;;;;;;;;;;;;;;;11.99;100.00;97946.03;5087551;28;19966;-79
2022/01/02 05:29:05;;;;;;;;;;;;;;;11.96;100.00;97944.16;5087027;28;20299;-78
2022/01/02 05:31:53;;;;;;;;;;;;;;;11.79;100.00;97942.81;5092476;28;19925;-78
2022/01/02 05:34:38;;;;;;;;;;;;;;;11.71;100.00;97935.91;5101261;28;20050;-78
2022/01/02 05:37:25;;;;;;;;;;;;;;;11.52;100.00;97951.00;5059644;28;19924;-78
2022/01/02 05:40:11;;;;;;;;;;;;;;;11.63;100.00;97957.00;5071698;28;19931;-78
2022/01/02 05:43:02;;;;;;;;;;;;;;;11.47;100.00;97962.00;5052813;28;19971;-78
2022/01/02 05:45:48;;;;;;;;;;;;;;;11.66;100.00;97967.28;5051243;28;20432;-79
2022/01/02 05:48:36;;;;;;;;;;;;;;;11.86;100.00;97967.72;5058776;28;20007;-78
2022/01/02 05:51:21;;;;;;;;;;;;;;;11.70;100.00;97967.16;5058410;28;19925;-78
2022/01/02 05:54:07;;;;;;;;;;;;;;;12.03;100.00;97952.25;5058441;28;19963;-78
2022/01/02 05:56:55;;;;;;;;;;;;;;;11.85;100.00;97945.78;5072412;28;20015;-79
2022/01/02 05:59:43;;;;;;;;;;;;;;;11.93;100.00;97947.88;5072939;28;19925;-79
2022/01/02 06:02:30;;;;;;;;;;;;;;;11.70;100.00;97953.97;5072308;28;19930;-79
2022/01/02 06:05:21;;;;;;;;;;;;;;;11.34;100.00;97955.69;5058045;28;20062;-78
2022/01/02 06:08:09;;;;;;;;;;;;;;;11.53;100.00;97946.97;5058548;28;19929;-78
2022/01/02 06:10:54;;;;;;;;;;;;;;;11.42;100.00;97945.81;5072682;28;19932;-77
2022/01/02 06:13:40;;;;;;;;;;;;;;;11.36;100.00;97947.63;5072654;28;19925;-77
2022/01/02 06:16:31;;;;;;;;;;;;;;;11.26;100.00;97955.16;5044631;28;20324;-78
2022/01/02 06:19:18;;;;;;;;;;;;;;;11.38;100.00;97959.13;5071041;28;19931;-78
2022/01/02 06:22:06;;;;;;;;;;;;;;;11.36;100.00;97967.97;5056125;28;20054;-78
2022/01/02 06:24:52;;;;;;;;;;;;;;;11.32;100.00;97960.94;5070684;28;20374;-78
2022/01/02 06:27:42;;;;;;;;;;;;;;;11.16;100.00;97950.75;5071785;28;20263;-78
2022/01/02 06:30:28;;;;;;;;;;;;;;;11.14;100.00;97947.63;5070249;28;19947;-77
2022/01/02 06:33:14;;;;;;;;;;;;;;;11.11;100.00;97945.72;5054670;28;20509;-77
2022/01/02 06:35:59;;;;;;;;;;;;;;;11.08;100.00;97938.25;5072182;28;19931;-78
2022/01/02 06:38:46;;;;;;;;;;;;;;;11.18;100.00;97948.25;5071782;28;19931;-78
2022/01/02 06:41:31;;;;;;;;;;;;;;;10.93;100.00;97943.53;5069939;28;19925;-78
2022/01/02 06:44:17;;;;;;;;;;;;;;;11.12;100.00;97940.94;5072080;28;20461;-78
2022/01/02 06:47:04;;;;;;;;;;;;;;;11.09;100.00;97942.59;5070861;28;19924;-77
2022/01/02 06:50:46;;;;;;;;;;;;;;;11.07;100.00;97947.88;5090374;28;19917;-79
2022/01/02 06:53:32;;;;;;;;;;;;;;;10.91;100.00;97948.03;5090226;28;20360;-79
2022/01/02 06:56:18;;;;;;;;;;;;;;;10.84;100.00;97963.03;5090178;28;20375;-79
2022/01/02 06:59:04;;;;;;;;;;;;;;;10.86;100.00;97951.41;5090170;28;20367;-79
2022/01/02 07:06:39;;;;;;;;;;;;;;;10.58;100.00;97966.34;5063778;28;19931;-79
2022/01/02 07:09:27;;;;;;;;;;;;;;;10.53;100.00;97972.47;5061087;28;19970;-79
2022/01/02 07:12:12;;;;;;;;;;;;;;;10.62;100.00;97967.78;5064067;28;20265;-79
2022/01/02 07:14:58;;;;;;;;;;;;;;;10.50;100.00;97967.81;5050796;28;19928;-79
2022/01/02 07:17:46;;;;;;;;;;;;;;;10.36;100.00;97959.91;5074217;28;20267;-80
2022/01/02 07:20:31;;;;;;;;;;;;;;;10.47;100.00;97960.31;5075438;28;20268;-79
2022/01/02 07:23:17;;;;;;;;;;;;;;;10.53;100.00;97948.13;5089584;28;19924;-79
2022/01/02 07:26:03;;;;;;;;;;;;;;;10.35;100.00;97959.13;5075619;28;20329;-79
2022/01/02 07:28:48;;;;;;;;;;;;;;;10.51;100.00;97966.59;5075476;28;20359;-79
2022/01/02 07:31:37;;;;;;;;;;;;;;;10.13;100.00;97971.41;5090625;28;19928;-79
2022/01/02 07:34:23;;;;;;;;;;;;;;;10.17;100.00;97980.44;5090421;28;19924;-79
2022/01/02 07:37:10;;;;;;;;;;;;;;;10.09;100.00;97979.88;5089446;28;19993;-79
2022/01/02 07:39:55;;;;;;;;;;;;;;;10.25;100.00;97979.75;5123373;28;19924;-80
2022/01/02 07:42:44;;;;;;;;;;;;;;;10.28;100.00;97976.09;5090516;28;19970;-79
2022/01/02 07:45:37;;;;;;;;;;;;;;;10.06;100.00;97986.31;5089263;28;19924;-79
2022/01/02 07:48:23;;;;;;;;;;;;;;;10.13;100.00;97988.16;5090219;28;19925;-79
2022/01/02 07:51:09;;;;;;;;;;;;;;;10.21;100.00;97997.84;5090294;28;19932;-79
2022/01/02 07:53:54;;;;;;;;;;;;;;;10.15;100.00;97994.84;5108668;28;19947;-79
2022/01/02 07:56:40;;;;;;;;;;;;;;;10.20;100.00;97996.31;5090100;28;19924;-79
2022/01/02 07:59:26;;;;;;;;;;;;;;;10.13;100.00;97993.75;5088846;28;20299;-80
2022/01/02 08:02:13;;;;;;;;;;;;;;;9.98;100.00;98000.97;5074708;28;19924;-79
2022/01/02 08:04:58;;;;;;;;;;;;;;;10.08;100.00;98011.03;5075244;28;20023;-79
2022/01/02 08:08:09;;;;;;;;;;;;;;;10.07;100.00;98009.47;5094639;28;19991;-79
2022/01/02 08:10:55;;;;;;;;;;;;;;;10.30;100.00;98001.53;5075104;28;19974;-79
2022/01/02 08:13:45;;;;;;;;;;;;;;;10.18;100.00;98001.53;5055408;28;20378;-79
2022/01/02 08:16:31;;;;;;;;;;;;;;;10.15;100.00;97994.06;5055281;28;19925;-79
2022/01/02 08:19:16;;;;;;;;;;;;;;;10.19;100.00;97995.50;5055063;28;19932;-79
2022/01/02 08:22:02;;;;;;;;;;;;;;;10.11;100.00;98008.13;5055007;28;20013;-79
2022/01/02 08:24:47;;;;;;;;;;;;;;;10.12;100.00;98000.53;5056227;28;19925;-79
2022/01/02 08:27:33;;;;;;;;;;;;;;;10.18;100.00;98001.53;5056131;28;19970;-79
2022/01/02 08:30:18;;;;;;;;;;;;;;;10.18;100.00;98012.69;5056063;28;19929;-80
2022/01/02 08:33:03;;;;;;;;;;;;;;;10.54;100.00;98021.53;5055747;28;19931;-79
2022/01/02 08:35:49;;;;;;;;;;;;;;;10.39;100.00;98031.59;5054871;28;20078;-79
2022/01/02 08:38:35;;;;;;;;;;;;;;;10.49;100.00;98024.88;5055549;28;19936;-79
2022/01/02 08:41:20;;;;;;;;;;;;;;;10.41;100.00;98031.91;5055566;28;20015;-80
2022/01/02 08:44:07;;;;;;;;;;;;;;;10.59;100.00;98029.34;5074198;28;19925;-79
2022/01/02 08:46:52;;;;;;;;;;;;;;;10.58;100.00;98030.59;5046069;28;20359;-80
2022/01/02 08:49:40;;;;;;;;;;;;;;;10.55;100.00;98029.47;5035303;28;19925;-78
2022/01/02 08:52:26;;;;;;;;;;;;;;;10.34;100.00;98034.94;5067831;28;19929;-78
2022/01/02 08:55:11;;;;;;;;;;;;;;;10.43;100.00;98038.63;5035528;28;19931;-79
2022/01/02 08:57:57;;;;;;;;;;;;;;;10.33;100.00;98044.56;5035706;28;20346;-79
2022/01/02 09:00:42;;;;;;;;;;;;;;;10.58;100.00;98050.94;5034464;28;19925;-79
2022/01/02 09:03:29;;;;;;;;;;;;;;;10.38;100.00;98055.16;5035287;28;19932;-79
2022/01/02 09:06:15;;;;;;;;;;;;;;;10.46;100.00;98048.91;5035740;28;19925;-79
2022/01/02 09:09:01;;;;;;;;;;;;;;;10.65;100.00;98045.09;5062603;28;20292;-81
2022/01/02 09:11:46;;;;;;;;;;;;;;;10.64;100.00;98042.75;5049266;28;19967;-78
2022/01/02 09:14:32;;;;;;;;;;;;;;;10.62;100.00;98045.22;5050379;28;19925;-79
2022/01/02 09:17:17;;;;;;;;;;;;;;;10.67;100.00;98042.66;5050528;28;19925;-79
2022/01/02 09:20:04;;;;;;;;;;;;;;;10.82;100.00;98037.38;5055152;28;19924;-78
2022/01/02 09:22:51;;;;;;;;;;;;;;;10.78;100.00;98040.28;5055275;28;20401;-78
2022/01/02 09:25:39;;;;;;;;;;;;;;;10.47;100.00;98028.13;5050964;28;19935;-79
2022/01/02 09:28:24;;;;;;;;;;;;;;;10.52;100.00;98035.16;5057960;28;20437;-79
2022/01/02 09:31:11;;;;;;;;;;;;;;;10.47;100.00;98039.31;5068454;28;19924;-79
2022/01/02 09:33:57;;;;;;;;;;;;;;;10.58;100.00;98027.78;5068307;28;19963;-79
2022/01/02 09:36:43;;;;;;;;;;;;;;;10.74;100.00;98028.44;5057460;28;20007;-79
2022/01/02 09:39:28;;;;;;;;;;;;;;;10.56;100.00;98038.63;5053613;28;19925;-79
2022/01/02 09:42:20;;;;;;;;;;;;;;;10.74;100.00;98041.63;5051052;28;20082;-79
2022/01/02 09:45:07;;;;;;;;;;;;;;;10.73;100.00;98023.31;5052558;28;19931;-79
2022/01/02 09:47:52;;;;;;;;;;;;;;;10.73;100.00;98034.47;5070106;28;20007;-79
2022/01/02 09:50:41;;;;;;;;;;;;;;;10.71;100.00;98040.50;5070146;28;19955;-79
2022/01/02 09:53:26;;;;;;;;;;;;;;;10.91;100.00;98045.84;5069651;28;19945;-79
2022/01/02 09:55:55;;;;;;;;;;;;;;;10.78;100.00;98042.31;5087884;28;20402;-79
2022/01/02 09:58:22;;;;;;;;;;;;;;;10.87;100.00;98043.16;5088726;28;19928;-79
2022/01/02 10:00:49;;;;;;;;;;;;;;;10.80;100.00;98045.41;5061668;28;19932;-80
2022/01/02 10:03:17;;;;;;;;;;;;;;;11.07;100.00;98042.91;5067164;28;19962;-78
2022/01/02 10:05:53;;;;;;;;;;;;;;;11.24;100.00;98040.75;5105567;28;19979;-78
2022/01/02 10:08:21;;;;;;;;;;;;;;;11.05;100.00;98039.78;5073584;28;20010;-78
2022/01/02 10:10:57;;;;;;;;;;;;;;;11.09;100.00;98040.44;5062355;28;19935;-79
2022/01/02 10:13:39;;;;;;;;;;;;;;;11.25;100.00;98037.50;5067833;28;20358;-78
2022/01/02 10:16:31;;;;;;;;;;;;;;;11.16;100.00;98033.84;5071764;28;20412;-79
2022/01/02 10:18:59;;;;;;;;;;;;;;;11.26;100.00;98032.66;5055631;28;19924;-79
2022/01/02 10:25:35;;;;;;;;;;;;;;;11.08;100.00;98024.91;5058041;28;19917;-79
2022/01/02 10:28:17;;;;;;;;;;;;;;;11.07;100.00;98031.75;5040688;28;20315;-78
2022/01/02 10:30:47;;;;;;;;;;;;;;;11.09;100.00;98018.06;5066228;28;20359;-79
2022/01/02 10:33:17;;;;;;;;;;;;;;;11.00;100.00;98012.41;5063188;28;19987;-78
2022/01/02 10:35:55;;;;;;;;;;;;;;;11.15;100.00;97999.50;5063487;28;20414;-78
2022/01/02 10:38:28;;;;;;;;;;;;;;;11.25;100.00;97998.34;5057917;28;20458;-79
2022/01/02 10:41:01;;;;;;;;;;;;;;;11.46;100.00;98005.97;5062477;28;20330;-79
2022/01/02 10:43:32;;;;;;;;;;;;;;;11.57;100.00;98009.16;5040294;28;20016;-79
2022/01/02 10:46:06;;;;;;;;;;;;;;;11.54;100.00;98012.09;5064397;28;20299;-78
2022/01/02 10:48:40;;;;;;;;;;;;;;;11.73;100.00;98006.19;5071584;28;20427;-79
2022/01/02 10:51:20;;;;;;;;;;;;;;;11.47;100.00;97993.56;5056778;28;20355;-79
2022/01/02 10:53:52;;;;;;;;;;;;;;;11.57;100.00;98000.00;5072359;28;20330;-79
2022/01/02 10:56:23;;;;;;;;;;;;;;;11.69;100.00;97988.75;5039551;28;20442;-79
2022/01/02 11:02:08;;;;;;;;;;;;;;;11.93;100.00;97972.28;5073225;28;19925;-79
2022/01/02 11:04:44;;;;;;;;;;;;;;;11.99;100.00;97965.63;5056093;28;19978;-79
2022/01/02 11:07:13;;;;;;;;;;;;;;;12.02;100.00;97969.50;5106007;28;19928;-79
2022/01/02 11:09:40;;;;;;;;;;;;;;;11.97;100.00;97970.88;5073462;28;20383;-78
2022/01/02 11:16:34;;;;;;;;;;;;;;;11.99;100.00;97957.22;5064936;28;19917;-78
2022/01/02 11:19:11;;;;;;;;;;;;;;;11.79;100.00;97958.81;5069412;28;19924;-78
2022/01/02 11:21:40;;;;;;;;;;;;;;;11.98;100.00;97952.84;5070636;28;19932;-78
2022/01/02 11:24:18;;;;;;;;;;;;;;;11.94;100.00;97960.63;5060999;28;19924;-78
2022/01/02 11:26:54;;;;;;;;;;;;;;;11.80;100.00;97949.19;5065846;28;20031;-78
2022/01/02 11:29:26;;;;;;;;;;;;;;;11.98;100.00;97950.06;5072446;28;19929;-78
2022/01/02 11:32:33;;;;;;;;;;;;;;;12.04;100.00;97942.59;5071639;28;19970;-79
2022/01/02 11:35:20;;;;;;;;;;;;;;;11.98;100.00;97936.06;5086173;28;19951;-78
2022/01/02 11:41:13;;;;;;;;;;;;;;;12.21;100.00;97924.34;5074190;28;19917;-78
2022/01/02 11:44:06;;;;;;;;;;;;;;;12.04;100.00;97923.00;5055261;28;20291;-78
2022/01/02 11:46:59;;;;;;;;;;;;;;;12.14;100.00;97935.84;5088915;28;19924;-79
2022/01/02 11:49:53;;;;;;;;;;;;;;;12.22;100.00;97916.72;5070584;28;19928;-78
2022/01/02 11:52:23;;;;;;;;;;;;;;;12.33;100.00;97917.84;5065995;28;20003;-78
2022/01/02 11:55:36;;;;;;;;;;;;;;;12.15;100.00;97919.78;5102861;28;20415;-78
2022/01/02 11:58:39;;;;;;;;;;;;;;;12.08;100.00;97915.28;5075246;28;20062;-78
2022/01/02 12:01:08;;;;;;;;;;;;;;;12.03;100.00;97912.28;5074881;28;20015;-78
2022/01/02 12:03:44;;;;;;;;;;;;;;;12.10;100.00;97898.00;5075609;28;20489;-78
2022/01/02 12:06:33;;;;;;;;;;;;;;;11.98;100.00;97898.91;5057894;28;19990;-79
2022/01/02 12:09:26;;;;;;;;;;;;;;;11.93;100.00;97897.47;5074945;28;19931;-78
2022/01/02 12:12:04;;;;;;;;;;;;;;;11.59;100.00;97894.78;5058148;28;19932;-78
2022/01/02 12:14:31;;;;;;;;;;;;;;;11.85;100.00;97890.59;5075478;28;19924;-78
2022/01/02 12:17:13;;;;;;;;;;;;;;;12.17;100.00;97890.09;5075214;28;20343;-79
2022/01/02 12:19:57;;;;;;;;;;;;;;;12.15;100.00;97880.59;5075207;28;19936;-78
2022/01/02 12:22:38;;;;;;;;;;;;;;;12.11;100.00;97889.16;5075219;28;20012;-78
2022/01/02 12:25:12;;;;;;;;;;;;;;;12.22;100.00;97885.91;5075163;28;20279;-78
2022/01/02 12:27:50;;;;;;;;;;;;;;;11.99;100.00;97876.06;5057696;28;19935;-78
2022/01/02 12:30:18;;;;;;;;;;;;;;;12.25;100.00;97859.78;5087109;28;19932;-78
2022/01/02 12:32:46;;;;;;;;;;;;;;;12.34;100.00;97860.56;5073990;28;19925;-78
2022/01/02 12:35:18;;;;;;;;;;;;;;;12.18;100.00;97866.44;5070285;28;20382;-78
2022/01/02 12:37:45;;;;;;;;;;;;;;;12.35;100.00;97861.34;5075491;28;19930;-79
2022/01/02 12:40:14;;;;;;;;;;;;;;;12.03;100.00;97862.69;5069872;28;19970;-78
2022/01/02 12:42:44;;;;;;;;;;;;;;;12.02;100.00;97860.34;5073866;28;19998;-78
2022/01/02 12:45:11;;;;;;;;;;;;;;;11.97;100.00;97858.94;5073761;28;19924;-78
2022/01/02 12:47:51;;;;;;;;;;;;;;;12.03;100.00;97848.69;5066913;28;19971;-79
2022/01/02 12:50:23;;;;;;;;;;;;;;;11.88;100.00;97861.69;5074799;28;20284;-79
2022/01/02 12:52:54;;;;;;;;;;;;;;;11.95;100.00;97844.59;5070104;28;19925;-78
2022/01/02 12:55:21;;;;;;;;;;;;;;;12.02;100.00;97830.34;5051426;28;19929;-78
2022/01/02 12:57:48;;;;;;;;;;;;;;;11.97;100.00;97830.94;5032960;28;20028;-78
2022/01/02 13:00:15;;;;;;;;;;;;;;;11.96;100.00;97829.38;5035437;28;19932;-79
2022/01/02 13:02:43;;;;;;;;;;;;;;;12.14;100.00;97828.66;5037748;28;19924;-78
2022/01/02 13:05:12;;;;;;;;;;;;;;;12.02;100.00;97837.94;5055093;28;19931;-78
2022/01/02 13:07:39;;;;;;;;;;;;;;;12.06;100.00;97819.75;5055255;28;19925;-79
2022/01/02 13:10:07;;;;;;;;;;;;;;;11.98;100.00;97814.94;5055136;28;19924;-78
2022/01/02 13:12:35;;;;;;;;;;;;;;;12.07;100.00;97812.91;5070081;28;19925;-79
2022/01/02 13:15:10;;;;;;;;;;;;;;;12.06;100.00;97805.75;5068621;28;19925;-79
2022/01/02 13:17:41;;;;;;;;;;;;;;;12.20;100.00;97815.59;5072923;28;19977;-79
2022/01/02 13:20:15;;;;;;;;;;;;;;;11.98;100.00;97804.50;5068593;28;19928;-78
2022/01/02 13:22:46;;;;;;;;;;;;;;;12.20;100.00;97793.97;5089660;28;19962;-78
2022/01/02 13:25:28;;;;;;;;;;;;;;;11.95;100.00;97794.22;5088557;28;19932;-79
2022/01/02 13:27:57;;;;;;;;;;;;;;;12.14;100.00;97809.84;5063107;28;19924;-79
2022/01/02 13:30:28;;;;;;;;;;;;;;;11.84;100.00;97810.69;5056229;28;19975;-79
2022/01/02 13:32:56;;;;;;;;;;;;;;;11.99;100.00;97817.25;5083732;28;19963;-79
2022/01/02 13:35:26;;;;;;;;;;;;;;;12.12;100.00;97812.31;5095778;28;19925;-80
2022/01/02 13:38:00;;;;;;;;;;;;;;;12.16;100.00;97815.72;5036192;28;19952;-79
2022/01/02 13:40:29;;;;;;;;;;;;;;;12.02;100.00;97816.34;5066588;28;20004;-79
2022/01/02 13:42:57;;;;;;;;;;;;;;;12.27;100.00;97815.28;5066603;28;20276;-79
2022/01/02 13:45:26;;;;;;;;;;;;;;;12.18;100.00;97810.44;5050129;28;19925;-79
2022/01/02 13:48:06;;;;;;;;;;;;;;;12.21;100.00;97811.53;5066612;28;19925;-79
2022/01/02 13:50:37;;;;;;;;;;;;;;;12.02;100.00;97816.34;5034056;28;19947;-82
2022/01/02 13:53:06;;;;;;;;;;;;;;;12.05;100.00;97804.22;5077447;28;19925;-79
2022/01/02 13:55:35;;;;;;;;;;;;;;;11.91;100.00;97804.78;5072156;28;20359;-79
2022/01/02 13:58:15;;;;;;;;;;;;;;;11.95;100.00;97805.41;5072987;28;19925;-78
2022/01/02 14:01:08;;;;;;;;;;;;;;;11.84;100.00;97791.09;5064042;28;19931;-78
2022/01/02 14:03:35;;;;;;;;;;;;;;;11.71;100.00;97787.63;5068766;28;19959;-78
2022/01/02 14:06:04;;;;;;;;;;;;;;;11.74;100.00;97795.09;5055160;28;19935;-78
2022/01/02 14:08:38;;;;;;;;;;;;;;;11.62;100.00;97787.59;5066823;28;19929;-78
2022/01/02 14:11:18;;;;;;;;;;;;;;;11.72;100.00;97796.81;5066540;28;19924;-78
2022/01/02 14:17:38;;;;;;;;;;;;;;;11.59;100.00;97777.28;5104577;28;20413;-78
2022/01/02 14:23:35;;;;;;;;;;;;;;;11.58;100.00;97781.34;5057049;28;19936;-78
2022/01/02 14:26:33;;;;;;;;;;;;;;;11.68;100.00;97780.16;5060825;28;19924;-78
2022/01/02 14:29:02;;;;;;;;;;;;;;;11.77;100.00;97777.38;5084612;28;19935;-78